createdAt,value
2023-05-09T00:02:19.185Z,2.17
2023-05-09T00:04:47.352Z,2.28
2023-05-09T00:07:14.810Z,2.15
2023-05-09T00:09:42.217Z,2.22
2023-05-09T00:12:09.941Z,2.22
2023-05-09T00:14:40.632Z,2.40
2023-05-09T00:17:08.226Z,2.30
2023-05-09T00:19:36.419Z,1.98
2023-05-09T00:22:03.854Z,2.35
2023-05-09T00:24:31.324Z,2.17
2023-05-09T00:26:58.997Z,2.37
2023-05-09T00:29:26.385Z,2.22
2023-05-09T00:31:54.070Z,2.35
2023-05-09T00:34:21.936Z,2.40
2023-05-09T00:36:50.653Z,2.40
2023-05-09T00:39:18.365Z,2.00
2023-05-09T00:41:46.265Z,2.30
2023-05-09T00:44:13.924Z,2.10
2023-05-09T00:46:41.732Z,2.22
2023-05-09T00:49:09.625Z,2.50
2023-05-09T00:51:38.660Z,2.25
2023-05-09T00:54:08.457Z,2.33
2023-05-09T00:56:37.260Z,2.00
2023-05-09T00:59:06.378Z,3.08
2023-05-09T01:01:33.905Z,2.20
2023-05-09T01:04:01.721Z,2.30
2023-05-09T01:06:52.246Z,2.70
2023-05-09T01:09:29.261Z,2.75
2023-05-09T01:12:14.157Z,2.10
2023-05-09T01:15:02.133Z,2.10
2023-05-09T01:17:48.101Z,2.30
2023-05-09T01:20:23.946Z,2.60
2023-05-09T01:23:36.233Z,2.50
2023-05-09T01:26:14.210Z,2.30
2023-05-09T01:28:53.617Z,2.30
2023-05-09T01:31:21.381Z,2.30
2023-05-09T01:33:53.274Z,2.90
2023-05-09T01:36:21.628Z,2.62
2023-05-09T01:38:51.575Z,2.55
2023-05-09T01:41:19.431Z,2.47
2023-05-09T01:43:49.052Z,2.70
2023-05-09T01:46:17.737Z,2.60
2023-05-09T01:48:46.718Z,2.15
2023-05-09T01:51:15.207Z,2.37
2023-05-09T01:53:43.561Z,2.75
2023-05-09T01:56:12.335Z,2.47
2023-05-09T01:58:41.399Z,2.75
2023-05-09T02:01:09.918Z,2.67
2023-05-09T02:03:38.293Z,2.47
2023-05-09T02:06:06.189Z,2.45
2023-05-09T02:08:33.598Z,2.58
2023-05-09T02:11:01.302Z,2.80
2023-05-09T02:13:29.482Z,2.85
2023-05-09T02:15:57.209Z,2.92
2023-05-09T02:18:24.891Z,2.47
2023-05-09T02:20:52.519Z,2.83
2023-05-09T02:23:20.397Z,2.95
2023-05-09T02:25:48.098Z,2.60
2023-05-09T02:28:16.118Z,2.70
2023-05-09T02:30:45.033Z,3.20
2023-05-09T02:33:13.670Z,2.80
2023-05-09T02:35:43.210Z,2.97
2023-05-09T02:38:13.027Z,3.15
2023-05-09T02:40:42.768Z,2.90
2023-05-09T02:43:10.590Z,3.17
2023-05-09T02:45:38.026Z,2.65
2023-05-09T02:48:08.367Z,2.65
2023-05-09T02:50:38.497Z,2.70
2023-05-09T02:53:06.290Z,2.72
2023-05-09T02:55:33.709Z,2.92
2023-05-09T02:58:12.654Z,2.80
2023-05-09T03:00:42.663Z,2.70
2023-05-09T03:03:10.761Z,3.20
2023-05-09T03:05:38.735Z,2.97
2023-05-09T03:08:06.603Z,3.10
2023-05-09T03:10:34.423Z,2.70
2023-05-09T03:13:01.872Z,3.28
2023-05-09T03:15:29.555Z,2.42
2023-05-09T03:17:58.433Z,3.08
2023-05-09T03:20:26.831Z,3.53
2023-05-09T03:22:54.805Z,3.20
2023-05-09T03:25:22.410Z,2.83
2023-05-09T03:27:49.877Z,3.17
2023-05-09T03:30:17.786Z,3.40
2023-05-09T03:32:45.994Z,3.58
2023-05-09T03:35:13.767Z,3.22
2023-05-09T03:37:41.863Z,3.90
2023-05-09T03:40:10.086Z,2.90
2023-05-09T03:42:39.142Z,3.28
2023-05-09T03:45:07.415Z,3.22
2023-05-09T03:47:35.115Z,2.97
2023-05-09T03:50:04.176Z,3.03
2023-05-09T03:52:33.203Z,3.12
2023-05-09T03:55:01.432Z,2.97
2023-05-09T03:57:30.519Z,3.42
2023-05-09T03:59:58.347Z,3.20
2023-05-09T04:02:26.199Z,2.78
2023-05-09T04:04:54.199Z,4.00
2023-05-09T04:07:22.010Z,3.62
2023-05-09T04:09:50.233Z,3.53
2023-05-09T04:12:17.966Z,3.35
2023-05-09T04:14:48.170Z,3.08
2023-05-09T04:17:17.155Z,2.95
2023-05-09T04:19:45.626Z,2.85
2023-05-09T04:22:13.139Z,3.12
2023-05-09T04:24:41.145Z,2.78
2023-05-09T04:27:08.903Z,2.50
2023-05-09T04:29:36.485Z,2.62
2023-05-09T04:32:05.032Z,3.05
2023-05-09T04:34:33.309Z,2.53
2023-05-09T04:37:02.083Z,2.97
2023-05-09T04:39:30.449Z,2.58
2023-05-09T04:41:59.828Z,2.42
2023-05-09T04:44:27.382Z,2.62
2023-05-09T04:46:55.137Z,2.80
2023-05-09T04:49:22.794Z,3.00
2023-05-09T04:51:52.097Z,2.40
2023-05-09T04:54:19.549Z,2.92
2023-05-09T04:56:50.051Z,2.53
2023-05-09T04:59:18.445Z,2.17
2023-05-09T05:01:46.460Z,2.80
2023-05-09T05:04:14.331Z,2.80
2023-05-09T05:06:42.161Z,2.40
2023-05-09T05:09:10.526Z,1.75
2023-05-09T05:11:38.969Z,2.42
2023-05-09T05:14:07.838Z,2.12
2023-05-09T05:16:35.466Z,2.72
2023-05-09T05:19:03.775Z,2.70
2023-05-09T05:21:32.832Z,2.62
2023-05-09T05:24:00.914Z,2.55
2023-05-09T05:26:29.098Z,2.12
2023-05-09T05:28:57.230Z,2.20
2023-05-09T05:31:25.078Z,2.30
2023-05-09T05:33:52.915Z,2.08
2023-05-09T05:36:21.362Z,2.10
2023-05-09T05:38:48.753Z,1.80
2023-05-09T05:41:16.511Z,1.85
2023-05-09T05:43:44.189Z,2.37
2023-05-09T05:46:12.287Z,2.00
2023-05-09T05:48:40.078Z,2.50
2023-05-09T05:51:07.594Z,2.17
2023-05-09T05:53:35.838Z,1.92
2023-05-09T05:56:03.915Z,2.33
2023-05-09T05:58:31.950Z,2.17
2023-05-09T06:00:59.682Z,2.25
2023-05-09T06:03:27.494Z,1.90
2023-05-09T06:05:56.496Z,2.30
2023-05-09T06:08:24.236Z,2.25
2023-05-09T06:10:51.894Z,2.03
2023-05-09T06:13:19.445Z,2.30
2023-05-09T06:15:47.422Z,2.22
2023-05-09T06:18:15.297Z,2.45
2023-05-09T06:20:42.697Z,2.12
2023-05-09T06:23:10.154Z,3.35
2023-05-09T06:25:37.931Z,1.75
2023-05-09T06:28:07.280Z,2.17
2023-05-09T06:30:34.716Z,2.42
2023-05-09T06:33:02.760Z,1.85
2023-05-09T06:35:30.301Z,2.28
2023-05-09T06:37:57.652Z,2.05
2023-05-09T06:40:25.514Z,2.10
2023-05-09T06:42:52.981Z,2.55
2023-05-09T06:45:20.985Z,2.15
2023-05-09T06:47:48.662Z,1.90
2023-05-09T06:50:16.096Z,1.98
2023-05-09T06:52:43.531Z,2.17
2023-05-09T06:55:11.209Z,1.98
2023-05-09T06:57:40.206Z,2.10
2023-05-09T07:00:08.150Z,2.03
2023-05-09T07:02:35.946Z,2.22
2023-05-09T07:05:03.473Z,2.12
2023-05-09T07:07:31.557Z,1.80
2023-05-09T07:10:10.370Z,1.70
2023-05-09T07:12:40.149Z,1.90
2023-05-09T07:15:09.359Z,2.08
2023-05-09T07:17:36.777Z,1.52
2023-05-09T07:20:04.946Z,1.27
2023-05-09T07:22:34.177Z,1.27
2023-05-09T07:25:03.476Z,1.48
2023-05-09T07:27:30.962Z,1.65
2023-05-09T07:29:58.655Z,1.20
2023-05-09T07:32:28.781Z,1.05
2023-05-09T07:34:56.249Z,1.00
2023-05-09T07:37:24.102Z,1.00
2023-05-09T07:39:52.043Z,1.30
2023-05-09T07:42:19.506Z,1.17
2023-05-09T07:44:47.241Z,1.37
2023-05-09T07:47:14.663Z,1.17
2023-05-09T07:49:43.442Z,1.37
2023-05-09T07:52:11.214Z,1.08
2023-05-09T07:54:38.603Z,1.08
2023-05-09T07:57:05.977Z,1.10
2023-05-09T07:59:33.736Z,0.93
2023-05-09T08:02:01.246Z,1.00
2023-05-09T08:04:29.006Z,1.23
2023-05-09T08:06:56.477Z,1.35
2023-05-09T08:09:23.884Z,1.02
2023-05-09T08:11:51.595Z,1.00
2023-05-09T08:14:19.106Z,0.70
2023-05-09T08:16:46.457Z,1.08
2023-05-09T08:19:14.132Z,1.00
2023-05-09T08:21:41.485Z,0.95
2023-05-09T08:24:09.630Z,0.88
2023-05-09T08:26:37.378Z,1.00
2023-05-09T08:29:04.829Z,1.00
2023-05-09T08:31:32.263Z,0.88
2023-05-09T08:34:00.026Z,0.95
2023-05-09T08:36:27.446Z,1.00
2023-05-09T08:38:54.861Z,1.20
2023-05-09T08:41:29.189Z,0.82
2023-05-09T08:43:56.656Z,0.90
2023-05-09T08:46:28.687Z,0.98
2023-05-09T08:48:57.032Z,0.90
2023-05-09T08:51:24.786Z,1.10
2023-05-09T08:53:52.357Z,1.00
2023-05-09T08:56:20.082Z,0.80
2023-05-09T08:58:47.921Z,1.00
2023-05-09T09:01:16.508Z,0.95
2023-05-09T09:03:47.588Z,0.90
2023-05-09T09:06:18.874Z,0.90
2023-05-09T09:08:47.181Z,1.42
2023-05-09T09:11:16.218Z,0.73
2023-05-09T09:13:44.068Z,0.90
2023-05-09T09:16:16.649Z,0.82
2023-05-09T09:18:44.904Z,1.00
2023-05-09T09:21:13.030Z,0.90
2023-05-09T09:23:42.948Z,0.80
2023-05-09T09:26:10.617Z,0.70
2023-05-09T09:28:38.067Z,2.33
2023-05-09T09:31:21.589Z,0.70
2023-05-09T09:33:49.639Z,0.90
2023-05-09T09:36:17.165Z,1.05
2023-05-09T09:38:44.685Z,0.98
2023-05-09T09:41:12.989Z,0.80
2023-05-09T09:43:45.492Z,0.70
2023-05-09T09:46:14.135Z,0.50
2023-05-09T09:48:50.365Z,0.65
2023-05-09T09:51:18.739Z,0.60
2023-05-09T09:53:46.825Z,0.50
2023-05-09T09:56:14.253Z,0.60
2023-05-09T09:58:41.986Z,0.60
2023-05-09T10:01:11.232Z,0.70
2023-05-09T10:03:40.831Z,0.60
2023-05-09T10:06:12.703Z,0.60
2023-05-09T10:11:09.216Z,0.70
2023-05-09T10:13:38.435Z,0.40
2023-05-09T10:16:08.896Z,0.65
2023-05-09T10:18:36.630Z,0.62
2023-05-09T10:21:05.717Z,0.88
2023-05-09T10:23:37.825Z,0.60
2023-05-09T10:26:12.554Z,0.55
2023-05-09T10:28:42.095Z,0.60
2023-05-09T10:31:15.115Z,0.60
2023-05-09T10:33:48.702Z,0.50
2023-05-09T10:36:18.505Z,0.50
2023-05-09T10:38:51.215Z,0.60
2023-05-09T10:41:25.659Z,0.50
2023-05-09T10:43:56.790Z,1.12
2023-05-09T10:46:24.386Z,1.00
2023-05-09T10:48:52.450Z,0.80
2023-05-09T10:51:20.371Z,0.70
2023-05-09T10:53:50.172Z,0.73
2023-05-09T10:56:26.533Z,1.00
2023-05-09T10:58:54.723Z,0.70
2023-05-09T11:01:48.338Z,0.82
2023-05-09T11:04:17.180Z,0.60
2023-05-09T11:06:47.583Z,0.90
2023-05-09T11:09:35.744Z,0.60
2023-05-09T11:12:06.306Z,0.60
2023-05-09T11:14:38.392Z,0.68
2023-05-09T11:17:27.611Z,0.80
2023-05-09T11:20:00.311Z,0.77
2023-05-09T11:22:32.894Z,0.80
2023-05-09T11:25:06.466Z,0.68
2023-05-09T11:27:49.451Z,0.60
2023-05-09T11:30:18.810Z,0.90
2023-05-09T11:32:48.041Z,1.30
2023-05-09T11:35:20.768Z,0.80
2023-05-09T11:37:49.829Z,1.00
2023-05-09T11:40:18.998Z,0.95
2023-05-09T11:42:49.715Z,0.93
2023-05-09T11:45:17.871Z,0.70
2023-05-09T11:47:47.141Z,0.70
2023-05-09T11:50:16.145Z,0.90
2023-05-09T11:52:43.982Z,1.10
2023-05-09T11:55:13.765Z,1.00
2023-05-09T11:57:44.759Z,0.70
2023-05-09T12:00:13.252Z,0.98
2023-05-09T12:02:43.832Z,0.70
2023-05-09T12:05:14.089Z,1.00
2023-05-09T12:07:42.356Z,0.80
2023-05-09T12:10:19.134Z,0.80
2023-05-09T12:12:48.526Z,0.90
2023-05-09T12:15:17.087Z,1.10
2023-05-09T12:17:47.080Z,1.35
2023-05-09T12:20:16.033Z,1.05
2023-05-09T12:22:44.188Z,1.17
2023-05-09T12:25:12.101Z,0.90
2023-05-09T12:27:41.578Z,0.75
2023-05-09T12:30:10.924Z,0.80
2023-05-09T12:32:40.373Z,0.75
2023-05-09T12:35:10.216Z,0.73
2023-05-09T12:37:37.804Z,0.80
2023-05-09T12:40:06.221Z,1.20
2023-05-09T12:42:35.284Z,0.90
2023-05-09T12:45:03.554Z,0.80
2023-05-09T12:47:32.998Z,0.60
2023-05-09T12:50:01.976Z,0.88
2023-05-09T12:52:41.738Z,1.00
2023-05-09T12:55:20.865Z,0.80
2023-05-09T12:58:00.194Z,0.85
2023-05-09T13:00:28.202Z,0.85
2023-05-09T13:02:55.824Z,0.73
2023-05-09T13:05:24.369Z,1.05
2023-05-09T13:07:56.198Z,1.02
2023-05-09T13:10:26.043Z,1.05
2023-05-09T13:12:53.983Z,1.00
2023-05-09T13:15:26.862Z,0.95
2023-05-09T13:17:54.706Z,1.00
2023-05-09T13:20:22.206Z,1.08
2023-05-09T13:22:50.268Z,0.65
2023-05-09T13:25:19.598Z,0.90
2023-05-09T13:27:46.969Z,0.70
2023-05-09T13:30:15.687Z,0.70
2023-05-09T13:32:43.578Z,0.93
2023-05-09T13:35:11.250Z,0.80
2023-05-09T13:37:38.811Z,1.15
2023-05-09T13:40:07.109Z,0.82
2023-05-09T13:42:34.831Z,0.80
2023-05-09T13:45:02.471Z,1.10
2023-05-09T13:47:30.191Z,0.80
2023-05-09T13:49:57.613Z,0.80
2023-05-09T13:52:25.036Z,0.70
2023-05-09T13:54:52.727Z,0.80
2023-05-09T13:57:20.110Z,0.80
2023-05-09T13:59:47.540Z,0.75
2023-05-09T14:02:15.300Z,0.70
2023-05-09T14:04:42.941Z,0.80
2023-05-09T14:07:12.580Z,0.70
2023-05-09T14:09:40.234Z,0.80
2023-05-09T14:12:08.187Z,0.80
2023-05-09T14:14:36.001Z,0.70
2023-05-09T14:17:03.988Z,0.60
2023-05-09T14:19:31.690Z,0.75
2023-05-09T14:21:59.164Z,0.80
2023-05-09T14:24:26.965Z,0.75
2023-05-09T14:26:54.683Z,0.55
2023-05-09T14:29:22.290Z,0.65
2023-05-09T14:31:49.757Z,0.70
2023-05-09T14:34:17.490Z,1.00
2023-05-09T14:36:45.039Z,0.60
2023-05-09T14:39:12.618Z,0.82
2023-05-09T14:41:40.303Z,0.70
2023-05-09T14:44:07.678Z,0.77
2023-05-09T14:46:36.869Z,0.60
2023-05-09T14:49:04.708Z,0.65
2023-05-09T14:51:33.269Z,0.75
2023-05-09T14:54:03.172Z,0.75
2023-05-09T14:56:32.180Z,0.88
2023-05-09T14:58:59.561Z,1.00
2023-05-09T15:01:26.979Z,0.70
2023-05-09T15:03:54.765Z,1.40
2023-05-09T15:06:23.373Z,1.23
2023-05-09T15:08:51.018Z,2.08
2023-05-09T15:11:18.664Z,1.62
2023-05-09T15:13:46.079Z,1.73
2023-05-09T15:16:13.606Z,2.65
2023-05-09T15:18:45.457Z,1.10
2023-05-09T15:21:12.922Z,1.10
2023-05-09T15:23:40.873Z,1.25
2023-05-09T15:26:08.876Z,0.70
2023-05-09T15:28:36.230Z,0.65
2023-05-09T15:31:04.170Z,0.70
2023-05-09T15:33:32.081Z,0.70
2023-05-09T15:36:00.296Z,0.60
2023-05-09T15:38:27.983Z,0.60
2023-05-09T15:40:55.477Z,0.50
2023-05-09T15:43:22.948Z,0.70
2023-05-09T15:45:51.210Z,0.68
2023-05-09T15:48:18.758Z,0.77
2023-05-09T15:50:46.133Z,0.90
2023-05-09T15:53:15.857Z,0.70
2023-05-09T15:55:43.650Z,0.73
2023-05-09T15:58:11.108Z,1.42
2023-05-09T16:00:39.781Z,0.80
2023-05-09T16:03:08.044Z,0.70
2023-05-09T16:05:35.664Z,0.68
2023-05-09T16:08:03.088Z,0.65
2023-05-09T16:10:30.927Z,0.73
2023-05-09T16:12:58.467Z,0.82
2023-05-09T16:15:25.918Z,0.70
2023-05-09T16:17:53.575Z,0.90
2023-05-09T16:20:20.974Z,0.70
2023-05-09T16:22:48.383Z,0.60
2023-05-09T16:25:16.650Z,0.73
2023-05-09T16:27:44.382Z,0.65
2023-05-09T16:30:12.269Z,0.60
2023-05-09T16:32:39.951Z,0.60
2023-05-09T16:35:07.774Z,0.75
2023-05-09T16:37:35.944Z,0.60
2023-05-09T16:40:04.685Z,0.57
2023-05-09T16:42:32.243Z,0.50
2023-05-09T16:45:00.027Z,0.70
2023-05-09T16:47:27.773Z,0.60
2023-05-09T16:49:55.253Z,0.85
2023-05-09T16:52:24.084Z,0.80
2023-05-09T16:54:54.518Z,0.90
2023-05-09T16:57:22.411Z,1.00
2023-05-09T16:59:50.055Z,0.98
2023-05-09T17:02:17.723Z,1.02
2023-05-09T17:04:45.143Z,1.08
2023-05-09T17:07:14.387Z,1.08
2023-05-09T17:09:43.151Z,0.95
2023-05-09T17:12:17.372Z,0.80
2023-05-09T17:14:45.769Z,0.90
2023-05-09T17:17:13.739Z,0.90
2023-05-09T17:20:01.937Z,1.00
2023-05-09T17:22:30.054Z,0.93
2023-05-09T17:24:57.629Z,1.00
2023-05-09T17:27:25.736Z,1.05
2023-05-09T17:29:53.440Z,0.90
2023-05-09T17:32:21.208Z,1.08
2023-05-09T17:34:48.615Z,0.80
2023-05-09T17:37:17.212Z,0.62
2023-05-09T17:39:44.999Z,1.00
2023-05-09T17:42:14.059Z,0.85
2023-05-09T17:44:43.718Z,1.00
2023-05-09T17:47:13.970Z,0.70
2023-05-09T17:49:41.644Z,1.10
2023-05-09T17:52:09.275Z,1.02
2023-05-09T17:54:36.746Z,1.20
2023-05-09T17:57:04.562Z,0.80
2023-05-09T17:59:32.061Z,0.80
2023-05-09T18:01:59.599Z,1.00
2023-05-09T18:04:30.317Z,1.00
2023-05-09T18:06:58.050Z,1.00
2023-05-09T18:09:26.461Z,1.40
2023-05-09T18:11:54.563Z,1.30
2023-05-09T18:14:22.515Z,1.37
2023-05-09T18:16:50.080Z,1.52
2023-05-09T18:19:17.987Z,1.70
2023-05-09T18:21:45.701Z,1.70
2023-05-09T18:24:16.249Z,2.12
2023-05-09T18:26:44.793Z,1.48
2023-05-09T18:29:12.227Z,1.87
2023-05-09T18:31:41.472Z,1.87
2023-05-09T18:34:09.425Z,1.27
2023-05-09T18:36:36.923Z,1.20
2023-05-09T18:39:04.593Z,0.90
2023-05-09T18:41:33.823Z,1.20
2023-05-09T18:44:01.403Z,1.02
2023-05-09T18:46:31.448Z,1.17
2023-05-09T18:48:59.744Z,1.30
2023-05-09T18:51:27.262Z,1.20
2023-05-09T18:53:54.664Z,1.20
2023-05-09T18:56:22.438Z,0.93
2023-05-09T18:58:50.200Z,1.35
2023-05-09T19:01:18.267Z,1.27
2023-05-09T19:03:47.437Z,1.10
2023-05-09T19:06:15.267Z,1.37
2023-05-09T19:08:43.419Z,1.08
2023-05-09T19:11:11.710Z,1.27
2023-05-09T19:13:40.792Z,1.60
2023-05-09T19:16:08.830Z,1.70
2023-05-09T19:18:37.182Z,1.50
2023-05-09T19:21:04.573Z,1.35
2023-05-09T19:23:32.185Z,1.42
2023-05-09T19:26:00.153Z,1.12
2023-05-09T19:28:27.522Z,1.20
2023-05-09T19:30:56.873Z,1.52
2023-05-09T19:33:25.119Z,1.35
2023-05-09T19:35:52.616Z,1.12
2023-05-09T19:38:20.054Z,1.08
2023-05-09T19:40:47.851Z,1.40
2023-05-09T19:43:15.341Z,1.30
2023-05-09T19:45:43.038Z,1.20
2023-05-09T19:48:15.241Z,1.55
2023-05-09T19:50:43.125Z,1.35
2023-05-09T19:53:11.207Z,1.40
2023-05-09T19:55:39.227Z,1.40
2023-05-09T19:58:06.653Z,1.23
2023-05-09T20:00:35.953Z,1.20
2023-05-09T20:03:03.989Z,1.83
2023-05-09T20:05:44.097Z,1.48
2023-05-09T20:08:11.936Z,0.93
2023-05-09T20:10:39.351Z,1.20
2023-05-09T20:13:06.841Z,1.52
2023-05-09T20:15:34.529Z,1.60
2023-05-09T20:18:03.681Z,1.50
2023-05-09T20:20:34.114Z,1.40
2023-05-09T20:23:02.111Z,1.55
2023-05-09T20:25:29.524Z,1.42
2023-05-09T20:27:57.386Z,1.30
2023-05-09T20:30:25.014Z,1.52
2023-05-09T20:32:52.518Z,1.35
2023-05-09T20:35:20.239Z,1.48
2023-05-09T20:37:47.881Z,2.00
2023-05-09T20:40:15.712Z,1.45
2023-05-09T20:42:43.545Z,1.30
2023-05-09T20:45:11.427Z,1.62
2023-05-09T20:47:39.815Z,1.50
2023-05-09T20:50:07.891Z,1.35
2023-05-09T20:52:35.725Z,1.40
2023-05-09T20:55:03.308Z,1.50
2023-05-09T20:57:30.700Z,1.42
2023-05-09T20:59:58.334Z,1.62
2023-05-09T21:02:25.808Z,1.33
2023-05-09T21:04:53.330Z,1.90
2023-05-09T21:07:21.662Z,1.45
2023-05-09T21:09:50.720Z,1.67
2023-05-09T21:12:18.128Z,1.65
2023-05-09T21:14:45.801Z,1.50
2023-05-09T21:17:13.265Z,1.42
2023-05-09T21:19:40.781Z,1.48
2023-05-09T21:22:09.227Z,1.60
2023-05-09T21:24:36.640Z,1.52
2023-05-09T21:27:04.829Z,1.87
2023-05-09T21:29:32.641Z,1.90
2023-05-09T21:32:00.036Z,1.35
2023-05-09T21:34:27.515Z,1.52
2023-05-09T21:36:55.176Z,1.50
2023-05-09T21:39:22.595Z,1.80
2023-05-09T21:41:49.989Z,1.83
2023-05-09T21:44:17.654Z,1.48
2023-05-09T21:46:46.312Z,1.55
2023-05-09T21:49:16.717Z,1.98
2023-05-09T21:51:44.517Z,1.50
2023-05-09T21:54:12.178Z,1.90
2023-05-09T21:56:39.690Z,1.70
2023-05-09T21:59:07.365Z,2.22
2023-05-09T22:01:34.852Z,1.55
2023-05-09T22:04:02.619Z,1.65
2023-05-09T22:06:30.080Z,1.75
2023-05-09T22:08:57.491Z,1.80
2023-05-09T22:11:25.144Z,1.60
2023-05-09T22:13:52.551Z,1.80
2023-05-09T22:16:20.052Z,1.65
2023-05-09T22:18:47.802Z,1.50
2023-05-09T22:21:15.295Z,1.70
2023-05-09T22:23:43.311Z,1.58
2023-05-09T22:26:11.056Z,1.67
2023-05-09T22:28:38.506Z,1.65
2023-05-09T22:31:06.838Z,1.75
2023-05-09T22:33:34.568Z,1.77
2023-05-09T22:36:02.159Z,1.70
2023-05-09T22:38:29.532Z,1.60
2023-05-09T22:40:57.171Z,1.50
2023-05-09T22:43:28.718Z,1.25
2023-05-09T22:46:01.702Z,1.42
2023-05-09T22:48:29.125Z,1.80
2023-05-09T22:50:56.531Z,1.23
2023-05-09T22:53:24.485Z,1.58
2023-05-09T22:55:52.806Z,1.62
2023-05-09T22:58:20.390Z,1.55
2023-05-09T23:00:48.139Z,1.48
2023-05-09T23:03:16.378Z,1.90
2023-05-09T23:06:40.235Z,1.70
2023-05-09T23:09:08.159Z,1.42
2023-05-09T23:11:35.579Z,1.45
2023-05-09T23:14:03.757Z,1.65
2023-05-09T23:16:31.532Z,1.60
2023-05-09T23:18:59.565Z,1.40
2023-05-09T23:21:26.949Z,1.87
2023-05-09T23:23:54.674Z,1.42
2023-05-09T23:26:22.254Z,2.00
2023-05-09T23:28:49.736Z,2.20
2023-05-09T23:31:17.766Z,1.80
2023-05-09T23:33:45.285Z,1.83
2023-05-09T23:36:12.762Z,1.62
2023-05-09T23:38:40.406Z,1.62
2023-05-09T23:41:07.776Z,2.10
2023-05-09T23:43:35.228Z,2.22
2023-05-09T23:46:04.140Z,1.77
2023-05-09T23:48:31.632Z,2.30
2023-05-09T23:50:59.067Z,1.95
2023-05-09T23:53:26.809Z,1.90
2023-05-09T23:55:54.278Z,2.10
2023-05-09T23:58:21.924Z,2.00
